Time;durP1;ratioP1;P1;durP2;ratioP2;P2;SDS_P1;SDS_P2;PMS_P1;PMS_P2;Temp;Humidity;BMP_temperature;BMP_pressure;BME280_temperature;BME280_humidity;BME280_pressure;Samples;Min_cycle;Max_cycle;Signal;HPM_P1;HPM_P2
2023/10/15 00:00:22;;;;;;;8.57;2.10;;;;;;;;;;4878915;29;20500;-79
2023/10/15 00:02:49;;;;;;;9.48;1.85;;;7.60;99.90;;;;;;4901721;29;20562;-79
2023/10/15 00:05:20;;;;;;;8.70;1.58;;;7.70;99.90;;;;;;4886195;29;20503;-79
2023/10/15 00:07:50;;;;;;;5.37;1.73;;;7.60;99.90;;;;;;4863236;29;20459;-80
2023/10/15 00:10:18;;;;;;;6.70;1.58;;;7.30;99.90;;;;;;4862434;29;20508;-79
2023/10/15 00:12:47;;;;;;;7.30;1.80;;;7.50;99.90;;;;;;4879830;29;20770;-83
2023/10/15 00:15:19;;;;;;;8.77;1.50;;;;;;;;;;4862913;29;20416;-82
2023/10/15 00:17:47;;;;;;;8.38;1.42;;;7.40;99.90;;;;;;4884878;29;20416;-82
2023/10/15 00:20:16;;;;;;;7.65;1.83;;;;;;;;;;4880576;29;20420;-83
2023/10/15 00:22:46;;;;;;;7.80;2.10;;;;;;;;;;4877837;29;20423;-83
2023/10/15 00:25:14;;;;;;;7.13;1.60;;;7.40;99.90;;;;;;4886315;29;20412;-81
2023/10/15 00:27:44;;;;;;;9.07;1.75;;;7.30;99.90;;;;;;4883969;29;20445;-82
2023/10/15 00:30:14;;;;;;;9.03;1.90;;;;;;;;;;4880056;29;20423;-81
2023/10/15 00:32:42;;;;;;;8.80;1.80;;;7.30;99.90;;;;;;4889735;29;20421;-81
2023/10/15 00:35:13;;;;;;;9.23;1.55;;;7.30;99.90;;;;;;4873037;29;20415;-82
2023/10/15 00:37:40;;;;;;;5.28;1.40;;;;;;;;;;4895781;29;20445;-82
2023/10/15 00:40:10;;;;;;;6.70;1.50;;;;;;;;;;4895607;29;20427;-82
2023/10/15 00:42:38;;;;;;;6.15;1.58;;;;;;;;;;4881253;29;20454;-82
2023/10/15 00:45:05;;;;;;;7.57;1.50;;;7.40;99.90;;;;;;4896510;29;20438;-81
2023/10/15 00:47:35;;;;;;;6.55;1.50;;;;;;;;;;4880882;29;20463;-81
2023/10/15 00:50:08;;;;;;;7.40;1.33;;;;;;;;;;4879857;29;20423;-82
2023/10/15 00:52:38;;;;;;;7.45;1.33;;;7.40;99.90;;;;;;4888899;29;20453;-81
2023/10/15 00:55:05;;;;;;;6.35;1.73;;;7.40;99.90;;;;;;4899801;29;20414;-82
2023/10/15 00:58:07;;;;;;;7.93;1.40;;;;;;;;;;4884078;29;20498;-82
2023/10/15 01:03:09;;;;;;;5.28;1.30;;;;;;;;;;4884276;29;20422;-82
2023/10/15 01:05:52;;;;;;;6.00;1.50;;;7.20;99.90;;;;;;4893872;29;20505;-81
2023/10/15 01:08:24;;;;;;;6.28;1.58;;;;;;;;;;4879390;29;20503;-82
2023/10/15 01:10:53;;;;;;;7.35;1.50;;;;;;;;;;4895771;29;20439;-82
2023/10/15 01:13:21;;;;;;;7.40;1.60;;;7.50;99.90;;;;;;4882421;29;20556;-80
2023/10/15 01:15:58;;;;;;;7.03;1.30;;;;;;;;;;4863930;29;20420;-80
2023/10/15 01:18:24;;;;;;;8.15;1.70;;;7.50;99.90;;;;;;4898711;29;20434;-80
2023/10/15 01:20:49;;;;;;;7.55;1.63;;;7.50;99.90;;;;;;4867883;29;20434;-79
2023/10/15 01:23:32;;;;;;;7.60;1.37;;;7.50;99.90;;;;;;4881785;29;20477;-79
2023/10/15 01:25:59;;;;;;;5.43;1.42;;;;;;;;;;4857301;29;20996;-79
2023/10/15 01:28:36;;;;;;;6.07;1.45;;;;;;;;;;4879911;29;20486;-79
2023/10/15 01:31:06;;;;;;;5.13;1.40;;;;;;;;;;4898182;29;20438;-79
2023/10/15 01:33:47;;;;;;;5.43;1.33;;;;;;;;;;4889933;29;20428;-79
2023/10/15 01:36:38;;;;;;;5.88;1.65;;;;;;;;;;4878729;29;20434;-79
2023/10/15 01:39:10;;;;;;;6.60;1.43;;;7.30;99.90;;;;;;4867929;29;20947;-79
2023/10/15 01:41:39;;;;;;;6.13;1.63;;;7.10;99.90;;;;;;4868871;29;20454;-79
2023/10/15 01:44:06;;;;;;;6.15;1.60;;;7.20;99.90;;;;;;4892153;29;20957;-80
2023/10/15 01:46:44;;;;;;;6.72;1.67;;;7.40;99.90;;;;;;4853997;29;20425;-79
2023/10/15 01:49:15;;;;;;;5.83;1.60;;;7.10;99.90;;;;;;4895070;29;20479;-81
2023/10/15 01:51:40;;;;;;;7.40;1.50;;;7.10;99.90;;;;;;4882217;29;20544;-80
2023/10/15 01:54:09;;;;;;;7.33;1.70;;;7.20;99.90;;;;;;4883143;29;20456;-80
2023/10/15 01:56:44;;;;;;;9.25;1.70;;;;;;;;;;4887009;29;20426;-80
2023/10/15 01:59:11;;;;;;;7.53;1.70;;;7.20;99.90;;;;;;4862904;29;20468;-80
2023/10/15 02:01:40;;;;;;;5.87;1.33;;;;;;;;;;4889943;29;20421;-80
2023/10/15 02:04:14;;;;;;;6.70;1.60;;;;;;;;;;4879343;29;20430;-80
2023/10/15 02:06:43;;;;;;;7.17;1.50;;;;;;;;;;4879477;29;20441;-80
2023/10/15 02:09:13;;;;;;;6.57;1.80;;;7.20;99.90;;;;;;4898786;29;20433;-80
2023/10/15 02:11:57;;;;;;;17.48;2.33;;;7.20;99.90;;;;;;4894025;29;20511;-81
2023/10/15 02:14:27;;;;;;;7.75;1.63;;;;;;;;;;4863401;29;20421;-81
2023/10/15 02:16:54;;;;;;;9.60;1.80;;;;;;;;;;4872223;29;20439;-81
2023/10/15 02:19:40;;;;;;;7.95;1.52;;;;;;;;;;4892504;29;20445;-81
2023/10/15 02:22:07;;;;;;;7.15;1.58;;;;;;;;;;4881851;29;20916;-81
2023/10/15 02:24:34;;;;;;;6.57;1.70;;;;;;;;;;4880298;29;20846;-81
2023/10/15 02:27:05;;;;;;;9.20;1.88;;;;;;;;;;4882373;29;21007;-80
2023/10/15 02:32:08;;;;;;;5.35;1.20;;;;;;;;;;4883286;29;20421;-79
2023/10/15 02:34:40;;;;;;;9.67;1.50;;;;;;;;;;4878473;29;20500;-79
2023/10/15 02:37:10;;;;;;;5.82;1.73;;;;;;;;;;4895453;29;20419;-79
2023/10/15 02:39:39;;;;;;;5.07;1.10;;;;;;;;;;4895913;29;20921;-78
2023/10/15 02:42:05;;;;;;;4.80;1.30;;;;;;;;;;4889366;29;20427;-81
2023/10/15 02:44:32;;;;;;;5.78;1.25;;;;;;;;;;4878595;29;20424;-80
2023/10/15 02:47:19;;;;;;;3.55;1.10;;;;;;;;;;4891702;29;20437;-80
2023/10/15 02:49:52;;;;;;;5.60;1.10;;;;;;;;;;4878117;29;20424;-80
2023/10/15 02:52:19;;;;;;;5.28;1.30;;;;;;;;;;4887296;29;20479;-80
2023/10/15 02:54:48;;;;;;;5.50;1.20;;;;;;;;;;4894922;29;20426;-79
2023/10/15 02:57:18;;;;;;;6.10;1.08;;;;;;;;;;4861686;29;20424;-79
2023/10/15 02:59:53;;;;;;;6.07;1.38;;;;;;;;;;4862129;29;20439;-79
2023/10/15 03:02:25;;;;;;;6.30;1.58;;;;;;;;;;4872298;29;20425;-79
2023/10/15 03:04:54;;;;;;;8.07;1.57;;;;;;;;;;4880795;29;20451;-78
2023/10/15 03:07:29;;;;;;;4.43;1.27;;;;;;;;;;4880115;29;20415;-79
2023/10/15 03:09:58;;;;;;;6.10;1.45;;;;;;;;;;4877657;29;20432;-79
2023/10/15 03:12:24;;;;;;;7.22;1.20;;;;;;;;;;4880275;29;20430;-79
2023/10/15 03:14:54;;;;;;;5.60;1.40;;;;;;;;;;4891390;29;20799;-79
2023/10/15 03:17:29;;;;;;;5.05;1.10;;;;;;;;;;4872440;29;20770;-78
2023/10/15 03:20:25;;;;;;;3.92;1.10;;;;;;;;;;4875251;29;20605;-78
2023/10/15 03:22:58;;;;;;;3.58;0.80;;;;;;;;;;4888439;29;20479;-79
2023/10/15 03:25:24;;;;;;;4.82;1.20;;;;;;;;;;4894988;29;20423;-79
2023/10/15 03:27:54;;;;;;;4.43;1.27;;;;;;;;;;4868210;29;20423;-79
2023/10/15 03:30:23;;;;;;;3.40;0.93;;;;;;;;;;4863607;29;20430;-80
2023/10/15 03:32:52;;;;;;;4.87;1.13;;;;;;;;;;4878501;29;20885;-80
2023/10/15 03:35:38;;;;;;;4.40;1.00;;;;;;;;;;4887999;29;20418;-80
2023/10/15 03:38:06;;;;;;;4.50;0.90;;;;;;;;;;4876468;29;20500;-79
2023/10/15 03:40:44;;;;;;;3.90;1.00;;;;;;;;;;4877312;29;20423;-80
2023/10/15 03:43:20;;;;;;;3.97;0.90;;;;;;;;;;4882522;29;20426;-78
2023/10/15 03:45:53;;;;;;;5.15;1.02;;;;;;;;;;4880945;29;20426;-79
2023/10/15 03:48:29;;;;;;;3.55;1.02;;;6.50;99.90;;;;;;4877610;29;20929;-79
2023/10/15 03:50:55;;;;;;;4.90;0.90;;;6.60;99.90;;;;;;4878502;29;20421;-79
2023/10/15 03:53:27;;;;;;;5.57;0.90;;;6.60;99.90;;;;;;4880595;29;20485;-79
2023/10/15 03:55:55;;;;;;;2.85;0.77;;;;;;;;;;4895795;29;20446;-79
2023/10/15 03:58:22;;;;;;;5.55;1.00;;;;;;;;;;4876868;29;20456;-79
2023/10/15 04:00:56;;;;;;;4.55;1.00;;;;;;;;;;4877514;29;20515;-80
2023/10/15 04:03:28;;;;;;;4.65;1.02;;;;;;;;;;4879195;29;20438;-79
2023/10/15 04:06:01;;;;;;;3.72;0.80;;;6.70;99.90;;;;;;4894779;29;20565;-80
2023/10/15 04:08:27;;;;;;;4.82;0.90;;;6.70;99.90;;;;;;4863558;29;20447;-80
2023/10/15 04:10:57;;;;;;;5.75;0.98;;;;;;;;;;4862550;29;20421;-79
2023/10/15 04:13:26;;;;;;;5.37;0.90;;;;;;;;;;4880200;29;20426;-80
2023/10/15 04:15:54;;;;;;;6.00;1.10;;;;;;;;;;4883318;29;20575;-79
2023/10/15 04:18:22;;;;;;;5.65;1.05;;;;;;;;;;4889051;29;20434;-79
2023/10/15 04:20:49;;;;;;;4.05;1.27;;;;;;;;;;4895822;29;20488;-79
2023/10/15 04:23:30;;;;;;;5.15;1.00;;;;;;;;;;4886761;29;20425;-80
2023/10/15 04:26:03;;;;;;;6.00;0.90;;;;;;;;;;4893647;29;20438;-79
2023/10/15 04:28:29;;;;;;;5.22;0.93;;;;;;;;;;4879266;29;21170;-81
2023/10/15 04:30:56;;;;;;;6.40;1.15;;;;;;;;;;4882091;29;20936;-81
2023/10/15 04:33:26;;;;;;;5.00;1.20;;;;;;;;;;4890478;29;20454;-81
2023/10/15 04:35:52;;;;;;;4.00;1.10;;;;;;;;;;4897182;29;20418;-81
2023/10/15 04:38:21;;;;;;;5.40;1.02;;;;;;;;;;4893945;29;20950;-81
2023/10/15 04:43:25;;;;;;;4.00;1.05;;;;;;;;;;4885805;29;20998;-80
2023/10/15 04:45:54;;;;;;;5.82;1.20;;;;;;;;;;4894813;29;20516;-80
2023/10/15 04:48:26;;;;;;;5.83;1.30;;;;;;;;;;4895327;29;20773;-80
2023/10/15 04:50:52;;;;;;;3.85;1.00;;;;;;;;;;4882847;29;20764;-80
2023/10/15 04:55:52;;;;;;;4.88;1.10;;;6.90;99.90;;;;;;4888540;29;20463;-80
2023/10/15 04:58:18;;;;;;;4.32;1.05;;;;;;;;;;4879820;29;20434;-81
2023/10/15 05:00:47;;;;;;;8.57;1.60;;;6.80;99.90;;;;;;4878818;29;20976;-81
2023/10/15 05:03:14;;;;;;;6.53;1.10;;;;;;;;;;4882253;29;20896;-81
2023/10/15 05:05:42;;;;;;;4.53;0.90;;;;;;;;;;4879171;29;20412;-80
2023/10/15 05:08:11;;;;;;;7.93;1.53;;;;;;;;;;4885631;29;20425;-80
2023/10/15 05:10:39;;;;;;;4.60;0.98;;;6.80;99.90;;;;;;4882452;29;20411;-81
2023/10/15 05:13:05;;;;;;;6.82;1.42;;;;;;;;;;4896680;29;20418;-81
2023/10/15 05:15:32;;;;;;;7.50;1.40;;;6.80;99.90;;;;;;4890596;29;20438;-81
2023/10/15 05:17:59;;;;;;;7.28;1.10;;;;;;;;;;4874009;29;20805;-81
2023/10/15 05:20:25;;;;;;;9.13;1.60;;;;;;;;;;4863888;29;20421;-80
2023/10/15 05:22:51;;;;;;;6.63;1.20;;;;;;;;;;4885845;29;20479;-80
2023/10/15 05:25:17;;;;;;;11.68;1.42;;;;;;;;;;4884068;29;20438;-80
2023/10/15 05:27:50;;;;;;;6.80;1.52;;;6.70;99.90;;;;;;4890825;29;20891;-81
2023/10/15 05:30:16;;;;;;;7.68;1.40;;;;;;;;;;4882263;29;20419;-81
2023/10/15 05:32:48;;;;;;;7.47;1.40;;;;;;;;;;4880874;29;20492;-79
2023/10/15 05:35:17;;;;;;;8.53;1.50;;;;;;;;;;4883095;29;20484;-80
2023/10/15 05:37:44;;;;;;;5.85;1.13;;;;;;;;;;4890186;29;20420;-80
2023/10/15 05:40:12;;;;;;;6.50;1.33;;;;;;;;;;4895415;29;20448;-78
2023/10/15 05:42:38;;;;;;;3.80;1.00;;;;;;;;;;4898835;29;20415;-80
2023/10/15 05:45:08;;;;;;;7.00;1.20;;;;;;;;;;4883687;29;20418;-83
2023/10/15 05:47:34;;;;;;;5.17;1.10;;;;;;;;;;4884460;29;20514;-82
2023/10/15 05:50:01;;;;;;;7.00;1.27;;;;;;;;;;4896829;29;20431;-83
2023/10/15 05:52:27;;;;;;;6.60;1.60;;;;;;;;;;4898944;29;20475;-82
2023/10/15 05:54:56;;;;;;;5.20;1.27;;;;;;;;;;4884577;29;20426;-83
2023/10/15 05:57:22;;;;;;;8.10;1.42;;;;;;;;;;4884783;29;20419;-83
2023/10/15 05:59:51;;;;;;;4.95;1.50;;;;;;;;;;4880101;29;20996;-82
2023/10/15 06:02:17;;;;;;;7.25;1.25;;;;;;;;;;4880838;29;20442;-82
2023/10/15 06:04:43;;;;;;;3.83;1.00;;;6.90;99.90;;;;;;4894747;29;20758;-83
2023/10/15 06:07:13;;;;;;;6.22;1.15;;;;;;;;;;4896472;29;20420;-82
2023/10/15 06:09:39;;;;;;;3.30;1.00;;;;;;;;;;4895526;29;20426;-82
2023/10/15 06:12:09;;;;;;;3.05;1.00;;;;;;;;;;4894304;29;20506;-82
2023/10/15 06:14:35;;;;;;;3.08;0.93;;;;;;;;;;4881298;29;20485;-81
2023/10/15 06:17:01;;;;;;;4.55;1.00;;;;;;;;;;4885668;29;20420;-82
2023/10/15 06:19:30;;;;;;;4.87;1.20;;;;;;;;;;4883725;29;21076;-81
2023/10/15 06:21:56;;;;;;;3.45;0.90;;;;;;;;;;4880870;29;20429;-82
2023/10/15 06:24:23;;;;;;;6.30;0.90;;;;;;;;;;4883809;29;20422;-82
2023/10/15 06:26:50;;;;;;;5.37;0.90;;;;;;;;;;4881981;29;20430;-82
2023/10/15 06:29:16;;;;;;;4.13;0.95;;;;;;;;;;4891460;29;20442;-82
2023/10/15 06:31:42;;;;;;;3.10;0.80;;;;;;;;;;4883095;29;20420;-83
2023/10/15 06:34:09;;;;;;;5.38;1.20;;;;;;;;;;4881806;29;20420;-84
2023/10/15 06:36:35;;;;;;;3.47;0.90;;;;;;;;;;4873888;29;20463;-83
2023/10/15 06:39:01;;;;;;;3.45;0.90;;;;;;;;;;4894881;29;20448;-79
2023/10/15 06:41:27;;;;;;;4.00;0.90;;;6.60;99.90;;;;;;4854078;29;20491;-81
2023/10/15 06:43:53;;;;;;;6.05;0.90;;;6.60;99.90;;;;;;4863328;29;20419;-82
2023/10/15 06:46:23;;;;;;;4.07;1.00;;;;;;;;;;4889003;29;20503;-82
2023/10/15 06:48:51;;;;;;;3.03;0.93;;;;;;;;;;4882805;29;20944;-83
2023/10/15 06:51:17;;;;;;;3.13;0.80;;;;;;;;;;4888636;29;20951;-82
2023/10/15 06:53:44;;;;;;;3.40;0.90;;;;;;;;;;4881770;29;20426;-81
2023/10/15 06:56:10;;;;;;;3.42;1.10;;;;;;;;;;4875267;29;20429;-81
2023/10/15 06:58:36;;;;;;;5.53;1.00;;;;;;;;;;4867029;29;20452;-81
2023/10/15 07:01:04;;;;;;;2.03;0.80;;;;;;;;;;4875080;29;20426;-82
2023/10/15 07:03:30;;;;;;;4.18;0.90;;;;;;;;;;4891540;29;20432;-82
2023/10/15 07:05:56;;;;;;;4.07;1.00;;;;;;;;;;4879350;29;20416;-79
2023/10/15 07:08:22;;;;;;;6.28;1.10;;;;;;;;;;4864050;29;20561;-83
2023/10/15 07:10:49;;;;;;;3.08;0.98;;;;;;;;;;4892496;29;20919;-82
2023/10/15 07:13:17;;;;;;;6.88;1.10;;;;;;;;;;4881109;29;20419;-81
2023/10/15 07:15:45;;;;;;;6.93;1.20;;;;;;;;;;4879462;29;20430;-81
2023/10/15 07:18:12;;;;;;;6.32;1.20;;;;;;;;;;4903889;29;20972;-83
2023/10/15 07:20:38;;;;;;;6.72;1.10;;;;;;;;;;4865301;29;20420;-81
2023/10/15 07:23:04;;;;;;;5.68;1.30;;;;;;;;;;4879062;29;20456;-83
2023/10/15 07:25:32;;;;;;;4.13;1.10;;;;;;;;;;4873596;29;20901;-83
2023/10/15 07:27:58;;;;;;;5.72;1.30;;;;;;;;;;4901941;29;20442;-83
2023/10/15 07:30:25;;;;;;;6.97;1.45;;;;;;;;;;4873421;29;20515;-82
2023/10/15 07:32:57;;;;;;;4.97;1.10;;;;;;;;;;4887645;29;20418;-82
2023/10/15 07:35:25;;;;;;;4.15;1.13;;;;;;;;;;4869399;29;20788;-79
2023/10/15 07:37:51;;;;;;;6.70;1.38;;;;;;;;;;4883093;29;20562;-83
2023/10/15 07:40:19;;;;;;;4.60;1.30;;;;;;;;;;4884619;29;20475;-84
2023/10/15 07:42:48;;;;;;;4.38;1.40;;;6.50;99.90;;;;;;4882773;29;20447;-84
2023/10/15 07:45:15;;;;;;;7.90;1.60;;;;;;;;;;4887744;29;20514;-81
2023/10/15 07:47:41;;;;;;;5.05;1.10;;;;;;;;;;4896759;29;20442;-83
2023/10/15 07:50:23;;;;;;;7.00;1.38;;;6.80;99.90;;;;;;4883050;29;20470;-82
2023/10/15 07:52:50;;;;;;;5.47;1.60;;;7.00;99.90;;;;;;4885881;29;20427;-83
2023/10/15 07:55:17;;;;;;;6.23;1.10;;;7.00;99.90;;;;;;4885096;29;20470;-83
2023/10/15 07:57:43;;;;;;;4.53;1.00;;;;;;;;;;4880882;29;20440;-84
2023/10/15 08:00:15;;;;;;;5.95;1.35;;;;;;;;;;4867211;29;20464;-83
2023/10/15 08:02:41;;;;;;;4.87;1.10;;;;;;;;;;4881584;29;20437;-83
2023/10/15 08:05:11;;;;;;;5.32;1.20;;;;;;;;;;4897291;29;20438;-82
2023/10/15 08:07:38;;;;;;;5.10;1.20;;;;;;;;;;4887537;29;20427;-82
2023/10/15 08:10:04;;;;;;;5.13;1.35;;;;;;;;;;4866110;29;20511;-81
2023/10/15 08:12:30;;;;;;;5.40;1.27;;;;;;;;;;4898465;29;20424;-82
2023/10/15 08:14:57;;;;;;;6.22;1.38;;;;;;;;;;4895392;29;20447;-82
2023/10/15 08:17:23;;;;;;;5.28;1.30;;;8.20;99.90;;;;;;4881678;29;20438;-82
2023/10/15 08:19:59;;;;;;;4.68;1.30;;;;;;;;;;4875646;29;20427;-83
2023/10/15 08:22:28;;;;;;;4.83;1.17;;;;;;;;;;4885827;29;20418;-86
2023/10/15 08:24:55;;;;;;;5.80;1.13;;;;;;;;;;4885280;29;20415;-87
2023/10/15 08:27:21;;;;;;;5.35;0.98;;;;;;;;;;4870735;29;20459;-86
2023/10/15 08:29:48;;;;;;;4.82;1.10;;;;;;;;;;4869214;29;20484;-87
2023/10/15 08:32:16;;;;;;;5.03;1.20;;;;;;;;;;4884149;29;20424;-87
2023/10/15 08:34:46;;;;;;;5.43;1.20;;;;;;;;;;4870795;29;20449;-85
2023/10/15 08:37:12;;;;;;;6.28;1.30;;;;;;;;;;4867865;29;20422;-85
2023/10/15 08:39:38;;;;;;;4.70;1.20;;;;;;;;;;4902228;29;20437;-83
2023/10/15 08:42:06;;;;;;;6.00;1.30;;;;;;;;;;4874452;29;20766;-85
2023/10/15 08:44:34;;;;;;;5.60;1.33;;;8.20;99.90;;;;;;4912994;29;20416;-84
2023/10/15 08:47:01;;;;;;;5.50;1.40;;;;;;;;;;4869373;29;20434;-84
2023/10/15 08:49:30;;;;;;;7.65;1.30;;;8.00;99.90;;;;;;4862565;29;20436;-84
2023/10/15 08:51:57;;;;;;;8.38;1.55;;;8.10;99.90;;;;;;4893103;29;20425;-83
2023/10/15 08:54:25;;;;;;;4.53;1.27;;;;;;;;;;4883050;29;20414;-85
2023/10/15 08:56:54;;;;;;;6.85;1.50;;;8.10;99.90;;;;;;4900813;29;20418;-83
2023/10/15 08:59:23;;;;;;;4.22;1.40;;;;;;;;;;4889372;29;20843;-84
2023/10/15 09:01:54;;;;;;;6.80;1.30;;;8.50;99.90;;;;;;4883634;29;20912;-85
2023/10/15 09:04:20;;;;;;;4.55;1.23;;;;;;;;;;4889294;29;20436;-84
2023/10/15 09:06:47;;;;;;;6.03;1.23;;;;;;;;;;4882759;29;20428;-84
2023/10/15 09:09:13;;;;;;;6.95;1.35;;;8.80;99.90;;;;;;4878461;29;20527;-84
2023/10/15 09:11:42;;;;;;;4.07;1.02;;;9.30;99.90;;;;;;4884292;29;20425;-82
2023/10/15 09:14:13;;;;;;;7.90;1.50;;;9.10;99.90;;;;;;4888881;29;20467;-81
2023/10/15 09:16:46;;;;;;;4.38;1.10;;;;;;;;;;4890192;29;20941;-81
2023/10/15 09:19:13;;;;;;;4.05;1.05;;;;;;;;;;4878699;29;20793;-81
2023/10/15 09:21:39;;;;;;;5.85;1.20;;;;;;;;;;4888173;29;20436;-82
2023/10/15 09:24:06;;;;;;;6.85;1.50;;;9.90;99.90;;;;;;4864687;29;20415;-75
2023/10/15 09:26:39;;;;;;;9.50;1.83;;;10.10;99.90;;;;;;4907658;29;20420;-79
2023/10/15 09:29:21;;;;;;;6.32;1.50;;;9.80;99.90;;;;;;4882399;29;20434;-79
2023/10/15 09:31:49;;;;;;;6.82;1.70;;;10.00;99.90;;;;;;4892291;29;20447;-76
2023/10/15 09:34:15;;;;;;;6.38;1.55;;;;;;;;;;4867265;29;20506;-79
2023/10/15 09:36:41;;;;;;;9.27;1.70;;;;;;;;;;4897347;29;20465;-78
2023/10/15 09:39:13;;;;;;;7.13;1.42;;;;;;;;;;4886911;29;20447;-79
2023/10/15 09:41:42;;;;;;;9.48;1.73;;;;;;;;;;4868619;29;20925;-79
2023/10/15 09:44:14;;;;;;;8.75;1.65;;;10.20;99.90;;;;;;4895446;29;20417;-79
2023/10/15 09:46:44;;;;;;;5.18;1.40;;;;;;;;;;4890402;29;20437;-81
2023/10/15 09:49:11;;;;;;;4.23;1.13;;;;;;;;;;4863497;29;20420;-78
2023/10/15 09:51:40;;;;;;;4.75;1.20;;;9.00;99.90;;;;;;4890498;29;20522;-79
2023/10/15 09:54:14;;;;;;;8.35;1.30;;;9.00;99.90;;;;;;4880810;29;20428;-79
2023/10/15 09:56:41;;;;;;;9.45;1.30;;;;;;;;;;4888658;29;20516;-79
2023/10/15 09:59:07;;;;;;;5.32;1.17;;;8.60;99.90;;;;;;4891795;29;20440;-78
2023/10/15 10:01:36;;;;;;;5.67;1.60;;;;;;;;;;4874533;29;20413;-77
2023/10/15 10:04:35;;;;;;;4.32;1.40;;;8.40;99.90;;;;;;4896427;29;20432;-79
2023/10/15 10:07:16;;;;;;;5.40;1.00;;;;;;;;;;4868936;29;20443;-78
2023/10/15 10:10:04;;;;;;;4.95;1.00;;;8.40;99.90;;;;;;4896475;29;20431;-79
2023/10/15 10:12:46;;;;;;;5.77;1.50;;;;;;;;;;4888047;29;20958;-79
2023/10/15 10:15:12;;;;;;;7.77;1.40;;;;;;;;;;4889257;29;20512;-78
2023/10/15 10:17:39;;;;;;;5.97;1.20;;;9.40;99.90;;;;;;4889800;29;20411;-78
2023/10/15 10:20:12;;;;;;;4.95;1.13;;;;;;;;;;4890269;29;20621;-78
2023/10/15 10:22:39;;;;;;;5.72;1.42;;;9.60;99.90;;;;;;4865034;29;20435;-78
2023/10/15 10:25:07;;;;;;;4.22;1.00;;;9.60;99.90;;;;;;4886033;29;20508;-78
2023/10/15 10:27:42;;;;;;;6.30;1.48;;;;;;;;;;4885210;29;20951;-78
2023/10/15 10:30:24;;;;;;;7.22;1.70;;;9.80;99.90;;;;;;4882852;29;20937;-79
2023/10/15 10:32:53;;;;;;;5.47;1.20;;;;;;;;;;4900060;29;20957;-78
2023/10/15 10:35:20;;;;;;;7.43;2.10;;;;;;;;;;4903222;29;20429;-78
2023/10/15 10:38:10;;;;;;;6.35;1.30;;;10.50;99.90;;;;;;4864174;29;20427;-79
2023/10/15 10:40:59;;;;;;;;;;;;;;;;;;;;;
2023/10/15 10:43:26;;;;;;;5.03;1.35;;;10.60;99.90;;;;;;4884621;29;20421;-80
2023/10/15 10:46:01;;;;;;;5.25;1.10;;;10.20;99.90;;;;;;4879751;29;20411;-81
2023/10/15 10:48:38;;;;;;;4.20;1.30;;;10.20;99.90;;;;;;4873567;29;20438;-81
2023/10/15 10:51:11;;;;;;;3.72;0.90;;;;;;;;;;4890021;29;20918;-81
2023/10/15 10:54:00;;;;;;;2.55;0.77;;;;;;;;;;4886393;29;20431;-81
2023/10/15 10:56:38;;;;;;;3.38;0.95;;;10.10;99.90;;;;;;4882738;29;20439;-80
2023/10/15 10:59:06;;;;;;;3.90;0.87;;;;;;;;;;4880343;29;21042;-81
2023/10/15 11:01:43;;;;;;;4.57;0.90;;;9.90;99.90;;;;;;4898180;29;20449;-80
2023/10/15 11:04:11;;;;;;;3.05;1.05;;;10.20;99.90;;;;;;4879892;29;20448;-81
2023/10/15 11:06:39;;;;;;;2.33;0.87;;;9.90;99.90;;;;;;4878312;29;20434;-78
2023/10/15 11:09:22;;;;;;;4.35;1.20;;;;;;;;;;4858435;29;20449;-79
2023/10/15 11:11:52;;;;;;;5.43;1.05;;;9.80;99.90;;;;;;4896873;29;20420;-81
2023/10/15 11:14:27;;;;;;;5.13;1.05;;;10.30;99.90;;;;;;4867508;29;20421;-82
2023/10/15 11:16:55;;;;;;;8.40;1.42;;;10.20;99.90;;;;;;4886312;29;20504;-80
2023/10/15 11:19:22;;;;;;;7.18;1.50;;;10.40;99.90;;;;;;4890293;29;20445;-79
2023/10/15 11:21:50;;;;;;;7.93;1.60;;;10.60;99.90;;;;;;4853764;29;20469;-80
2023/10/15 11:24:17;;;;;;;5.35;1.38;;;10.70;99.90;;;;;;4874240;29;20411;-80
2023/10/15 11:26:44;;;;;;;4.95;1.30;;;10.80;99.90;;;;;;4869115;29;20512;-81
2023/10/15 11:29:11;;;;;;;7.97;2.10;;;;;;;;;;4886435;29;20445;-81
2023/10/15 11:31:38;;;;;;;8.75;1.80;;;10.70;99.90;;;;;;4866764;29;20523;-81
2023/10/15 11:34:05;;;;;;;6.35;1.40;;;11.20;99.90;;;;;;4875382;29;20444;-81
2023/10/15 11:36:35;;;;;;;7.30;1.30;;;11.10;99.90;;;;;;4879518;29;20418;-81
2023/10/15 11:39:08;;;;;;;5.50;1.30;;;11.40;99.90;;;;;;4868714;29;20496;-81
2023/10/15 11:41:38;;;;;;;5.00;1.40;;;11.40;99.90;;;;;;4885648;29;20416;-80
2023/10/15 11:44:06;;;;;;;4.25;1.25;;;;;;;;;;4873281;29;21939;-80
2023/10/15 11:46:35;;;;;;;5.35;1.23;;;11.20;99.90;;;;;;4866655;29;20446;-80
2023/10/15 11:49:01;;;;;;;6.93;1.38;;;11.00;99.90;;;;;;4878537;29;20836;-81
2023/10/15 11:51:31;;;;;;;5.53;1.23;;;;;;;;;;4878928;29;20521;-79
2023/10/15 11:54:01;;;;;;;5.33;1.20;;;11.30;99.90;;;;;;4894403;29;20426;-80
2023/10/15 11:56:28;;;;;;;3.70;1.05;;;11.30;99.90;;;;;;4860608;29;20420;-81
2023/10/15 11:58:54;;;;;;;3.83;0.83;;;;;;;;;;4884173;29;20439;-81
2023/10/15 12:01:21;;;;;;;4.75;1.00;;;11.20;99.90;;;;;;4881312;29;20418;-81
2023/10/15 12:03:50;;;;;;;5.63;1.50;;;11.20;99.90;;;;;;4885916;29;20414;-82
2023/10/15 12:06:19;;;;;;;4.33;1.30;;;11.50;99.90;;;;;;4878450;29;21067;-82
2023/10/15 12:08:45;;;;;;;5.03;1.02;;;11.50;99.90;;;;;;4892739;29;20428;-81
2023/10/15 12:11:14;;;;;;;5.30;1.20;;;11.60;99.90;;;;;;4880758;29;20445;-79
2023/10/15 12:13:41;;;;;;;4.03;1.17;;;11.10;99.90;;;;;;4877065;29;20478;-80
2023/10/15 12:16:07;;;;;;;5.85;1.40;;;;;;;;;;4881616;29;20466;-80
2023/10/15 12:18:33;;;;;;;7.10;1.40;;;11.00;99.90;;;;;;4879740;29;20474;-81
2023/10/15 12:20:59;;;;;;;4.97;1.00;;;;;;;;;;4865546;29;20821;-81
2023/10/15 12:23:27;;;;;;;5.07;1.20;;;;;;;;;;4878963;29;20507;-80
2023/10/15 12:25:54;;;;;;;4.60;1.23;;;;;;;;;;4863820;29;20419;-80
2023/10/15 12:28:20;;;;;;;5.40;1.50;;;;;;;;;;4885361;29;20434;-81
2023/10/15 12:30:46;;;;;;;5.20;1.30;;;;;;;;;;4881470;29;20446;-81
2023/10/15 12:33:15;;;;;;;4.63;1.05;;;;;;;;;;4895337;29;20425;-80
2023/10/15 12:35:43;;;;;;;6.50;1.50;;;;;;;;;;4894079;29;20525;-82
2023/10/15 12:38:16;;;;;;;6.28;1.23;;;11.60;99.90;;;;;;4878868;29;20466;-80
2023/10/15 12:40:45;;;;;;;4.95;1.30;;;;;;;;;;4877899;29;20498;-81
2023/10/15 12:43:11;;;;;;;7.00;1.30;;;12.10;99.90;;;;;;4889661;29;20429;-81
2023/10/15 12:45:38;;;;;;;4.38;1.10;;;12.10;99.90;;;;;;4856946;29;20423;-77
2023/10/15 12:48:08;;;;;;;6.40;1.10;;;12.10;99.90;;;;;;4880996;29;20423;-81
2023/10/15 12:50:35;;;;;;;3.17;0.93;;;11.90;99.90;;;;;;4889782;29;20547;-80
2023/10/15 12:53:02;;;;;;;2.92;1.00;;;12.30;99.90;;;;;;4891579;29;20458;-81
2023/10/15 12:55:28;;;;;;;5.25;1.23;;;;;;;;;;4880338;29;20837;-79
2023/10/15 12:57:54;;;;;;;4.45;1.00;;;11.80;99.90;;;;;;4881001;29;21116;-80
2023/10/15 13:00:26;;;;;;;4.35;0.93;;;;;;;;;;4883133;29;20462;-80
2023/10/15 13:02:53;;;;;;;3.37;0.80;;;11.20;99.90;;;;;;4893318;29;20954;-81
2023/10/15 13:05:23;;;;;;;3.90;0.95;;;11.10;99.90;;;;;;4896831;29;20419;-80
2023/10/15 13:07:50;;;;;;;3.53;1.10;;;;;;;;;;4890085;29;20417;-82
2023/10/15 13:10:17;;;;;;;3.13;0.80;;;10.70;99.90;;;;;;4866189;29;20802;-80
2023/10/15 13:12:45;;;;;;;4.18;1.25;;;10.90;99.90;;;;;;4876014;29;20447;-81
2023/10/15 13:15:13;;;;;;;7.28;1.30;;;;;;;;;;4878553;29;20439;-81
2023/10/15 13:17:40;;;;;;;5.93;1.20;;;;;;;;;;4864871;29;20782;-80
2023/10/15 13:20:06;;;;;;;4.87;1.20;;;;;;;;;;4891816;29;20443;-81
2023/10/15 13:22:35;;;;;;;5.38;1.45;;;;;;;;;;4873576;29;20442;-80
2023/10/15 13:25:01;;;;;;;7.97;1.63;;;;;;;;;;4893773;29;20941;-80
2023/10/15 13:27:27;;;;;;;6.20;1.42;;;;;;;;;;4888639;29;20444;-77
2023/10/15 13:29:54;;;;;;;6.40;1.48;;;;;;;;;;4866728;29;20428;-80
2023/10/15 13:32:20;;;;;;;6.07;1.50;;;;;;;;;;4878983;29;20465;-81
2023/10/15 13:34:48;;;;;;;7.07;1.23;;;;;;;;;;4895698;29;20429;-83
2023/10/15 13:37:14;;;;;;;4.97;1.35;;;;;;;;;;4873358;29;20468;-81
2023/10/15 13:39:41;;;;;;;4.25;1.35;;;;;;;;;;4887110;29;20457;-82
2023/10/15 13:42:07;;;;;;;7.75;1.35;;;;;;;;;;4880813;29;20461;-82
2023/10/15 13:44:34;;;;;;;7.45;1.80;;;;;;;;;;4880590;29;20441;-82
2023/10/15 13:47:01;;;;;;;9.50;1.98;;;;;;;;;;4868051;29;20512;-81
2023/10/15 13:49:27;;;;;;;8.40;2.00;;;;;;;;;;4879917;29;20455;-83
2023/10/15 13:51:53;;;;;;;7.77;1.67;;;;;;;;;;4880461;29;20519;-83
2023/10/15 13:54:20;;;;;;;5.80;2.17;;;;;;;;;;4869870;29;20483;-81
2023/10/15 13:56:46;;;;;;;10.60;1.80;;;;;;;;;;4868295;29;20494;-84
2023/10/15 13:59:12;;;;;;;8.23;1.87;;;;;;;;;;4858524;29;20453;-84
2023/10/15 14:01:39;;;;;;;10.23;1.60;;;;;;;;;;4883261;29;20768;-83
2023/10/15 14:04:14;;;;;;;10.75;1.90;;;;;;;;;;4887138;29;20437;-83
2023/10/15 14:06:40;;;;;;;5.97;1.50;;;;;;;;;;4868513;29;20466;-82
2023/10/15 14:09:14;;;;;;;6.72;1.98;;;;;;;;;;4875203;29;20486;-84
2023/10/15 14:11:44;;;;;;;6.60;1.37;;;10.20;99.90;;;;;;4891277;29;20431;-82
2023/10/15 14:14:13;;;;;;;6.30;1.40;;;;;;;;;;4883644;29;21038;-85
2023/10/15 14:16:39;;;;;;;7.60;1.40;;;;;;;;;;4880341;29;20484;-85
2023/10/15 14:19:05;;;;;;;6.07;1.10;;;;;;;;;;4892165;29;20439;-83
2023/10/15 14:21:34;;;;;;;6.95;1.98;;;;;;;;;;4899361;29;20494;-83
2023/10/15 14:24:09;;;;;;;7.60;1.50;;;;;;;;;;4880462;29;20920;-82
2023/10/15 14:26:35;;;;;;;5.40;1.57;;;;;;;;;;4889279;29;20844;-83